Time;durP1;ratioP1;P1;durP2;ratioP2;P2;SDS_P1;SDS_P2;PMS_P1;PMS_P2;Temp;Humidity;BMP_temperature;BMP_pressure;BME280_temperature;BME280_humidity;BME280_pressure;Samples;Min_cycle;Max_cycle;Signal;HPM_P1;HPM_P2
2022/10/24 00:01:31;;;;;;;3.30;3.10;;;8.80;99.90;;;;;;6123330;29;20457;-68
2022/10/24 00:04:39;;;;;;;2.80;2.70;;;8.80;99.90;;;;;;6140059;29;20291;-68
2022/10/24 00:07:44;;;;;;;3.10;3.00;;;8.80;99.90;;;;;;6139519;29;20303;-67
2022/10/24 00:10:50;;;;;;;3.47;3.30;;;8.80;99.90;;;;;;6129040;29;20478;-68
2022/10/24 00:13:58;;;;;;;3.08;2.97;;;8.80;99.90;;;;;;6115972;29;20591;-67
2022/10/24 00:17:03;;;;;;;3.15;3.05;;;8.70;99.90;;;;;;6116728;29;20281;-68
2022/10/24 00:20:13;;;;;;;3.17;2.97;;;8.80;99.90;;;;;;6115792;29;20300;-68
2022/10/24 00:23:18;;;;;;;3.15;3.05;;;8.80;99.90;;;;;;6115985;29;20328;-67
2022/10/24 00:26:23;;;;;;;3.67;3.40;;;8.90;99.90;;;;;;6116741;29;20277;-68
2022/10/24 00:29:28;;;;;;;3.15;2.95;;;8.90;99.90;;;;;;6115924;29;20299;-68
2022/10/24 00:32:33;;;;;;;3.42;3.10;;;8.90;99.90;;;;;;6115687;29;20446;-68
2022/10/24 00:35:39;;;;;;;3.40;3.25;;;8.90;99.90;;;;;;6116477;29;20374;-67
2022/10/24 00:38:44;;;;;;;3.45;3.25;;;8.90;99.90;;;;;;6119097;29;20304;-68
2022/10/24 00:41:49;;;;;;;2.90;2.75;;;8.90;99.90;;;;;;6103610;29;20445;-67
2022/10/24 00:44:54;;;;;;;2.83;2.70;;;8.90;99.90;;;;;;6120329;29;20295;-68
2022/10/24 00:47:59;;;;;;;3.33;3.20;;;8.90;99.90;;;;;;6120178;29;20331;-68
2022/10/24 00:51:08;;;;;;;6.53;3.30;;;8.80;99.90;;;;;;6120896;29;20299;-68
2022/10/24 00:54:14;;;;;;;3.03;2.92;;;8.70;99.90;;;;;;6120093;29;20335;-68
2022/10/24 00:57:24;;;;;;;3.45;3.35;;;8.80;99.90;;;;;;6120289;29;20272;-67
2022/10/24 01:00:32;;;;;;;3.47;3.28;;;8.80;99.90;;;;;;6119764;29;20279;-67
2022/10/24 01:03:38;;;;;;;9.90;4.03;;;8.90;99.90;;;;;;6119704;29;20298;-67
2022/10/24 01:06:53;;;;;;;3.33;3.22;;;8.90;99.90;;;;;;6119806;29;20276;-67
2022/10/24 01:10:25;;;;;;;3.78;3.47;;;8.90;99.90;;;;;;6123778;29;20295;-67
2022/10/24 01:13:47;;;;;;;3.40;3.25;;;8.90;99.90;;;;;;6143523;29;20603;-67
2022/10/24 01:16:58;;;;;;;3.10;3.00;;;8.90;99.90;;;;;;6143442;29;20451;-67
2022/10/24 01:20:52;;;;;;;5.10;3.40;;;8.90;99.90;;;;;;6142878;29;20303;-67
2022/10/24 01:24:35;;;;;;;4.07;3.20;;;8.90;99.90;;;;;;6143008;29;20295;-68
2022/10/24 01:27:53;;;;;;;3.38;3.28;;;8.90;99.90;;;;;;6143090;29;20291;-67
2022/10/24 01:31:05;;;;;;;2.72;2.63;;;8.90;99.90;;;;;;6143353;29;20295;-67
2022/10/24 01:34:23;;;;;;;3.22;3.13;;;8.90;99.90;;;;;;6143010;29;20303;-67
2022/10/24 01:37:34;;;;;;;3.45;3.20;;;8.80;99.90;;;;;;6142376;29;20459;-67
2022/10/24 01:40:51;;;;;;;3.30;2.90;;;8.80;99.90;;;;;;6143205;29;20464;-67
2022/10/24 01:44:01;;;;;;;3.13;3.03;;;8.90;99.90;;;;;;6142488;29;20299;-68
2022/10/24 01:47:12;;;;;;;2.65;2.55;;;8.90;99.90;;;;;;6142780;29;20271;-68
2022/10/24 01:50:20;;;;;;;3.10;2.95;;;8.90;99.90;;;;;;6142076;29;20295;-67
2022/10/24 01:53:28;;;;;;;3.17;2.83;;;8.90;99.90;;;;;;6142622;29;20303;-68
2022/10/24 01:56:32;;;;;;;3.10;2.80;;;8.90;99.90;;;;;;6142948;29;20271;-67
2022/10/24 01:59:44;;;;;;;3.28;3.17;;;8.90;99.90;;;;;;6142642;29;20299;-67
2022/10/24 02:02:55;;;;;;;3.20;3.03;;;9.00;99.90;;;;;;6142298;29;20287;-68
2022/10/24 02:06:04;;;;;;;2.72;2.50;;;9.00;99.90;;;;;;6142759;29;20279;-67
2022/10/24 02:09:14;;;;;;;3.22;3.03;;;9.00;99.90;;;;;;6141580;29;20311;-67
2022/10/24 02:12:20;;;;;;;2.85;2.65;;;8.90;99.90;;;;;;6120002;29;20288;-67
2022/10/24 02:15:27;;;;;;;2.90;2.80;;;8.90;99.90;;;;;;6118264;29;20296;-67
2022/10/24 02:18:34;;;;;;;2.63;2.63;;;8.90;99.90;;;;;;6118321;29;20300;-67
2022/10/24 02:21:44;;;;;;;3.30;3.03;;;8.90;99.90;;;;;;6118672;29;20279;-68
2022/10/24 02:24:53;;;;;;;3.00;2.90;;;8.90;99.90;;;;;;6118180;29;20299;-67
2022/10/24 02:28:04;;;;;;;2.53;2.53;;;8.90;99.90;;;;;;6118253;29;20296;-70
2022/10/24 02:31:16;;;;;;;2.70;2.70;;;8.90;99.90;;;;;;6101959;29;20291;-68
2022/10/24 02:34:22;;;;;;;2.97;2.78;;;8.90;99.90;;;;;;6118206;29;20299;-68
2022/10/24 02:37:29;;;;;;;2.95;2.70;;;8.90;99.90;;;;;;6118178;29;20272;-68
2022/10/24 02:40:34;;;;;;;2.85;2.75;;;8.90;99.90;;;;;;6117709;29;20271;-69
2022/10/24 02:43:41;;;;;;;2.83;2.63;;;8.90;99.90;;;;;;6117444;29;20548;-68
2022/10/24 02:46:47;;;;;;;2.63;2.53;;;9.00;99.90;;;;;;6118099;29;20272;-68
2022/10/24 02:49:54;;;;;;;2.70;2.60;;;9.00;99.90;;;;;;6117904;29;20295;-68
2022/10/24 02:52:59;;;;;;;2.65;2.63;;;9.00;99.90;;;;;;6117067;29;20300;-67
2022/10/24 02:56:04;;;;;;;3.03;2.80;;;9.00;99.90;;;;;;6117750;29;20272;-67
2022/10/24 02:59:08;;;;;;;2.95;2.75;;;9.00;99.90;;;;;;6116997;29;20315;-67
2022/10/24 03:02:18;;;;;;;2.72;2.67;;;9.00;99.90;;;;;;6127040;29;20311;-67
2022/10/24 03:05:24;;;;;;;3.20;3.10;;;9.00;99.90;;;;;;6107978;29;20268;-67
2022/10/24 03:08:29;;;;;;;2.97;2.78;;;9.00;99.90;;;;;;6116729;29;20303;-68
2022/10/24 03:11:34;;;;;;;2.80;2.70;;;9.00;99.90;;;;;;6131759;29;20307;-67
2022/10/24 03:14:39;;;;;;;3.92;2.85;;;9.00;99.90;;;;;;6140404;29;20626;-68
2022/10/24 03:17:46;;;;;;;3.05;2.95;;;9.00;99.90;;;;;;6140314;29;20430;-67
2022/10/24 03:20:53;;;;;;;2.83;2.80;;;9.00;99.90;;;;;;6120433;29;20268;-67
2022/10/24 03:23:57;;;;;;;2.78;2.67;;;9.00;99.90;;;;;;6116779;29;20300;-67
2022/10/24 03:27:03;;;;;;;2.60;2.40;;;9.00;99.90;;;;;;6116500;29;20268;-68
2022/10/24 03:30:11;;;;;;;2.55;2.45;;;9.00;99.90;;;;;;6116626;29;20272;-67
2022/10/24 03:33:18;;;;;;;2.63;2.60;;;9.00;99.90;;;;;;6100191;29;20304;-67
2022/10/24 03:36:24;;;;;;;2.50;2.50;;;9.00;99.90;;;;;;6125544;29;20267;-68
2022/10/24 03:39:29;;;;;;;2.60;2.60;;;9.00;99.90;;;;;;6140225;29;20343;-68
2022/10/24 03:42:33;;;;;;;2.80;2.80;;;9.00;99.90;;;;;;6140182;29;20300;-69
2022/10/24 03:45:38;;;;;;;2.80;2.60;;;9.00;99.90;;;;;;6140345;29;20271;-68
2022/10/24 03:48:43;;;;;;;2.70;2.60;;;9.10;99.90;;;;;;6139502;29;20291;-68
2022/10/24 03:51:49;;;;;;;2.80;2.70;;;9.00;99.90;;;;;;6140563;29;20306;-67
2022/10/24 03:54:54;;;;;;;2.40;2.30;;;9.00;99.90;;;;;;6139775;29;20294;-67
2022/10/24 03:57:59;;;;;;;2.63;2.53;;;9.00;99.90;;;;;;6139511;29;20328;-68
2022/10/24 04:01:04;;;;;;;2.50;2.40;;;9.00;99.90;;;;;;6140469;29;20267;-68
2022/10/24 04:04:11;;;;;;;2.38;2.38;;;9.00;99.90;;;;;;6139732;29;20295;-67
2022/10/24 04:07:17;;;;;;;2.85;2.60;;;9.00;99.90;;;;;;6139604;29;20590;-68
2022/10/24 04:10:22;;;;;;;2.50;2.40;;;9.00;99.90;;;;;;6133095;29;20559;-68
2022/10/24 04:13:26;;;;;;;2.17;2.13;;;9.00;99.90;;;;;;6120615;29;20299;-68
2022/10/24 04:16:33;;;;;;;2.25;2.25;;;9.00;99.90;;;;;;6121088;29;20571;-68
2022/10/24 04:19:38;;;;;;;2.53;2.42;;;9.10;99.90;;;;;;6121032;29;20296;-69
2022/10/24 04:22:44;;;;;;;2.67;2.40;;;9.10;99.90;;;;;;6121056;29;20307;-67
2022/10/24 04:25:49;;;;;;;2.42;2.33;;;9.10;99.90;;;;;;6121429;29;20275;-68
2022/10/24 04:28:54;;;;;;;2.60;2.40;;;9.10;99.90;;;;;;6120984;29;20311;-67
2022/10/24 04:31:59;;;;;;;2.67;2.55;;;9.10;99.90;;;;;;6120551;29;20476;-67
2022/10/24 04:35:05;;;;;;;1.80;1.80;;;9.10;99.90;;;;;;6120978;29;20280;-67
2022/10/24 04:38:12;;;;;;;2.10;2.10;;;9.10;99.90;;;;;;6120658;29;20606;-68
2022/10/24 04:41:17;;;;;;;2.00;2.00;;;9.10;99.90;;;;;;6121079;29;20275;-67
2022/10/24 04:44:22;;;;;;;2.13;1.58;;;9.10;99.90;;;;;;6119719;29;20295;-68
2022/10/24 04:47:27;;;;;;;2.13;2.03;;;9.10;99.90;;;;;;6119987;29;20304;-68
2022/10/24 04:50:32;;;;;;;1.65;1.65;;;9.10;99.90;;;;;;6120657;29;20324;-67
2022/10/24 04:53:38;;;;;;;1.77;1.77;;;9.10;99.90;;;;;;6119788;29;20304;-68
2022/10/24 04:56:43;;;;;;;1.60;1.60;;;9.00;99.90;;;;;;6120389;29;20276;-67
2022/10/24 04:59:48;;;;;;;3.90;1.60;;;9.00;99.90;;;;;;6119714;29;20295;-67
2022/10/24 05:02:53;;;;;;;1.40;1.40;;;9.10;99.90;;;;;;6120033;29;20296;-67
2022/10/24 05:06:02;;;;;;;1.50;1.48;;;9.10;99.90;;;;;;6120471;29;20272;-68
2022/10/24 05:09:09;;;;;;;1.42;1.25;;;9.10;99.90;;;;;;6119184;29;20307;-67
2022/10/24 05:12:14;;;;;;;1.42;1.42;;;9.10;99.90;;;;;;6141622;29;20267;-68
2022/10/24 05:15:20;;;;;;;1.40;1.30;;;9.00;99.90;;;;;;6144088;29;20272;-68
2022/10/24 05:18:25;;;;;;;1.50;1.50;;;9.00;99.90;;;;;;6126359;29;20318;-67
2022/10/24 05:21:30;;;;;;;1.38;1.38;;;9.10;99.90;;;;;;6143949;29;20271;-68
2022/10/24 05:24:36;;;;;;;1.23;1.23;;;9.10;99.90;;;;;;6142419;29;20311;-67
2022/10/24 05:27:40;;;;;;;1.30;1.30;;;9.10;99.90;;;;;;6142679;29;20287;-67
2022/10/24 05:30:45;;;;;;;1.33;1.33;;;9.10;99.90;;;;;;6143317;29;20430;-67
2022/10/24 05:33:50;;;;;;;1.20;1.20;;;9.10;99.90;;;;;;6142768;29;20303;-67
2022/10/24 05:36:55;;;;;;;3.25;1.30;;;9.10;99.90;;;;;;6143565;29;20275;-67
2022/10/24 05:40:01;;;;;;;1.40;1.40;;;9.10;99.90;;;;;;6141975;29;20279;-68
2022/10/24 05:43:07;;;;;;;1.27;1.27;;;9.10;99.90;;;;;;6142849;29;20318;-67
2022/10/24 05:46:12;;;;;;;1.30;1.30;;;9.10;99.90;;;;;;6142786;29;20476;-67
2022/10/24 05:49:16;;;;;;;1.20;1.20;;;9.10;99.90;;;;;;6142392;29;20630;-67
2022/10/24 05:52:21;;;;;;;1.23;1.23;;;9.10;99.90;;;;;;6142118;29;20299;-67
2022/10/24 05:55:27;;;;;;;2.47;1.30;;;9.20;99.90;;;;;;6142793;29;20299;-68
2022/10/24 05:58:32;;;;;;;1.08;1.00;;;9.20;99.90;;;;;;6142117;29;20302;-68
2022/10/24 06:01:37;;;;;;;2.40;1.10;;;9.20;99.90;;;;;;6142467;29;20280;-67
2022/10/24 06:04:42;;;;;;;0.90;0.90;;;9.10;99.90;;;;;;6142166;29;20458;-67
2022/10/24 06:07:47;;;;;;;6.43;1.38;;;9.20;99.90;;;;;;6141630;29;20298;-68
2022/10/24 06:10:54;;;;;;;1.38;1.20;;;9.20;99.90;;;;;;6131009;29;20267;-68
2022/10/24 06:13:59;;;;;;;1.60;1.50;;;9.20;99.90;;;;;;6118220;29;20316;-68
2022/10/24 06:17:05;;;;;;;1.63;1.00;;;9.20;99.90;;;;;;6117688;29;20271;-68
2022/10/24 06:20:11;;;;;;;0.90;0.90;;;9.20;99.90;;;;;;6118514;29;20272;-68
2022/10/24 06:23:16;;;;;;;1.20;1.20;;;9.20;99.90;;;;;;6118117;29;20319;-68
2022/10/24 06:26:22;;;;;;;0.95;0.95;;;9.30;99.90;;;;;;6118717;29;20275;-68
2022/10/24 06:29:27;;;;;;;1.23;0.90;;;9.30;99.90;;;;;;6117502;29;20304;-68
2022/10/24 06:32:37;;;;;;;1.00;1.00;;;9.30;99.90;;;;;;6117492;29;20315;-68
2022/10/24 06:35:48;;;;;;;2.03;0.80;;;9.30;99.90;;;;;;6117303;29;20296;-68
2022/10/24 06:38:56;;;;;;;1.05;1.05;;;9.30;99.90;;;;;;6117156;29;20299;-68
2022/10/24 06:42:02;;;;;;;0.85;0.85;;;9.30;99.90;;;;;;6117629;29;20284;-68
2022/10/24 06:45:09;;;;;;;2.08;0.98;;;9.30;99.90;;;;;;6118011;29;20283;-68
2022/10/24 06:48:14;;;;;;;0.90;0.90;;;9.30;99.90;;;;;;6117334;29;20636;-68
2022/10/24 06:51:18;;;;;;;0.90;0.90;;;9.30;99.90;;;;;;6118263;29;20431;-68
2022/10/24 06:54:23;;;;;;;0.82;0.82;;;9.40;99.90;;;;;;6117280;29;20340;-68
2022/10/24 06:57:34;;;;;;;1.05;1.05;;;9.30;99.90;;;;;;6117444;29;20292;-68
2022/10/24 07:00:39;;;;;;;3.95;0.90;;;9.30;99.90;;;;;;6117808;29;20268;-67
2022/10/24 07:03:44;;;;;;;3.05;1.42;;;9.40;99.90;;;;;;6117171;29;20300;-68
2022/10/24 07:06:49;;;;;;;0.90;0.90;;;9.30;99.90;;;;;;6116773;29;20268;-67
2022/10/24 07:09:56;;;;;;;0.93;0.93;;;9.40;99.90;;;;;;6120264;29;20310;-67
2022/10/24 07:13:03;;;;;;;0.85;0.85;;;9.50;99.90;;;;;;6140654;29;20299;-67
2022/10/24 07:16:08;;;;;;;1.55;0.90;;;9.50;99.90;;;;;;6141088;29;20298;-68
2022/10/24 07:19:14;;;;;;;0.85;0.80;;;9.50;99.90;;;;;;6139996;29;20294;-68
2022/10/24 07:22:19;;;;;;;1.75;0.98;;;9.50;99.90;;;;;;6140209;29;20306;-68
2022/10/24 07:25:24;;;;;;;0.90;0.90;;;9.50;99.90;;;;;;6140746;29;20279;-68
2022/10/24 07:28:30;;;;;;;1.30;0.90;;;9.50;99.90;;;;;;6140242;29;20299;-68
2022/10/24 07:31:36;;;;;;;0.82;0.80;;;9.50;99.90;;;;;;6140415;29;20271;-69
2022/10/24 07:34:42;;;;;;;1.00;1.00;;;9.50;99.90;;;;;;6139922;29;20307;-68
2022/10/24 07:37:46;;;;;;;0.98;0.93;;;9.60;99.90;;;;;;6140063;29;20307;-68
2022/10/24 07:40:52;;;;;;;0.90;0.90;;;9.60;99.90;;;;;;6140760;29;20279;-68
2022/10/24 07:44:00;;;;;;;0.80;0.80;;;9.60;99.90;;;;;;6139860;29;20302;-68
2022/10/24 07:47:07;;;;;;;2.15;1.00;;;9.70;99.90;;;;;;6139426;29;20580;-68
2022/10/24 07:50:14;;;;;;;1.10;0.82;;;9.70;99.90;;;;;;6140264;29;20271;-68
2022/10/24 07:53:19;;;;;;;4.15;1.00;;;9.70;99.90;;;;;;6139865;29;20307;-68
2022/10/24 07:56:24;;;;;;;0.80;0.80;;;9.60;99.90;;;;;;6140442;29;20295;-67
2022/10/24 07:59:30;;;;;;;0.82;0.82;;;9.70;99.90;;;;;;6139726;29;20307;-67
2022/10/24 08:02:46;;;;;;;2.08;1.00;;;9.70;99.90;;;;;;6139802;29;20299;-68
2022/10/24 08:05:56;;;;;;;2.00;1.10;;;9.80;99.90;;;;;;6123004;29;20388;-67
2022/10/24 08:09:01;;;;;;;1.13;1.13;;;9.80;99.90;;;;;;6139282;29;20311;-67
2022/10/24 08:12:06;;;;;;;2.88;1.02;;;9.90;99.90;;;;;;6118602;29;20443;-68
2022/10/24 08:15:12;;;;;;;2.53;0.98;;;9.80;99.90;;;;;;6116588;29;20291;-67
2022/10/24 08:18:17;;;;;;;1.75;1.63;;;9.90;99.90;;;;;;6115997;29;20484;-67
2022/10/24 08:21:23;;;;;;;3.33;0.90;;;9.90;99.90;;;;;;6116617;29;20276;-67
2022/10/24 08:24:28;;;;;;;1.17;1.08;;;9.90;99.90;;;;;;6099069;29;20303;-67
2022/10/24 08:27:33;;;;;;;0.82;0.82;;;9.90;99.90;;;;;;6116211;29;20308;-67
2022/10/24 08:30:39;;;;;;;1.20;0.90;;;10.00;99.90;;;;;;6115830;29;20297;-67
2022/10/24 08:33:44;;;;;;;2.20;0.90;;;10.00;99.90;;;;;;6115962;29;20482;-67
2022/10/24 08:36:49;;;;;;;1.00;1.00;;;10.00;99.90;;;;;;6099135;29;20292;-68
2022/10/24 08:39:54;;;;;;;0.80;0.80;;;10.00;99.90;;;;;;6115802;29;20583;-67
2022/10/24 08:42:59;;;;;;;1.75;0.90;;;10.00;99.90;;;;;;6115936;29;20295;-68
2022/10/24 08:46:18;;;;;;;5.22;1.00;;;10.00;99.90;;;;;;6116118;29;20280;-68
2022/10/24 08:49:30;;;;;;;3.25;0.90;;;10.00;99.90;;;;;;6115614;29;20300;-68
2022/10/24 08:52:41;;;;;;;1.00;1.00;;;10.00;99.90;;;;;;6115497;29;20295;-67
2022/10/24 08:55:49;;;;;;;1.95;1.13;;;10.10;99.90;;;;;;6116159;29;20291;-67
2022/10/24 08:58:54;;;;;;;0.70;0.70;;;10.10;99.90;;;;;;6117075;29;20595;-67
2022/10/24 09:02:04;;;;;;;0.93;0.93;;;10.10;99.90;;;;;;6119835;29;20272;-67
2022/10/24 09:05:23;;;;;;;1.42;0.90;;;10.10;99.90;;;;;;6120534;29;20352;-68
2022/10/24 09:08:33;;;;;;;3.58;1.00;;;10.10;99.90;;;;;;6119772;29;20300;-67
2022/10/24 09:11:45;;;;;;;1.33;1.02;;;10.10;99.90;;;;;;6114636;29;20268;-67
2022/10/24 09:14:57;;;;;;;0.80;0.80;;;10.10;99.90;;;;;;6096264;29;20616;-67
2022/10/24 09:18:10;;;;;;;2.55;0.90;;;10.10;99.90;;;;;;6095956;29;20300;-67
2022/10/24 09:21:15;;;;;;;10.15;1.27;;;10.20;99.90;;;;;;6096153;29;20288;-67
2022/10/24 09:24:41;;;;;;;3.60;0.80;;;10.20;99.90;;;;;;6096028;29;20297;-67
2022/10/24 09:27:46;;;;;;;2.83;0.88;;;10.10;99.90;;;;;;6095955;29;20300;-67
2022/10/24 09:30:52;;;;;;;3.53;1.15;;;10.10;99.90;;;;;;6095748;29;20272;-67
2022/10/24 09:34:00;;;;;;;0.90;0.80;;;10.10;99.90;;;;;;6095829;29;20304;-68
2022/10/24 09:37:05;;;;;;;3.33;1.10;;;10.10;99.90;;;;;;6095266;29;20515;-67
2022/10/24 09:40:21;;;;;;;4.88;1.00;;;10.20;99.90;;;;;;6095560;29;20277;-67
2022/10/24 09:43:38;;;;;;;2.80;1.00;;;10.30;99.90;;;;;;6095387;29;20326;-68
2022/10/24 09:46:46;;;;;;;2.10;1.23;;;10.20;99.90;;;;;;6096311;29;20277;-68
2022/10/24 09:49:53;;;;;;;0.90;0.90;;;10.20;99.90;;;;;;6095398;29;20478;-68
2022/10/24 09:52:59;;;;;;;1.25;1.02;;;10.30;99.90;;;;;;6095243;29;20301;-68
2022/10/24 09:56:09;;;;;;;0.80;0.80;;;10.30;99.90;;;;;;6096074;29;20297;-68
2022/10/24 09:59:28;;;;;;;0.95;0.90;;;10.30;99.90;;;;;;6095410;29;20628;-68
2022/10/24 10:02:35;;;;;;;1.23;1.20;;;10.30;99.90;;;;;;6095066;29;20289;-67
2022/10/24 10:05:46;;;;;;;4.60;1.17;;;10.40;99.90;;;;;;6095716;29;20399;-68
2022/10/24 10:08:55;;;;;;;3.10;1.10;;;10.40;99.90;;;;;;6094601;29;20297;-68
2022/10/24 10:12:00;;;;;;;1.63;1.15;;;10.50;99.90;;;;;;6114898;29;20325;-68
2022/10/24 10:15:29;;;;;;;4.13;1.42;;;10.50;99.90;;;;;;6118728;29;20284;-68
2022/10/24 10:18:44;;;;;;;2.28;1.42;;;10.60;99.90;;;;;;6118363;29;20300;-68
2022/10/24 10:21:56;;;;;;;2.03;1.60;;;10.60;99.90;;;;;;6118818;29;20275;-68
2022/10/24 10:25:02;;;;;;;1.73;1.20;;;10.60;99.90;;;;;;6117345;29;20280;-68
2022/10/24 10:28:20;;;;;;;1.30;1.20;;;10.60;99.90;;;;;;6118203;29;20291;-67
2022/10/24 10:31:34;;;;;;;1.10;1.00;;;10.60;99.90;;;;;;6118324;29;20452;-68
2022/10/24 10:34:41;;;;;;;1.73;0.90;;;10.60;99.90;;;;;;6117772;29;20295;-69
2022/10/24 10:37:49;;;;;;;2.65;1.20;;;10.60;99.90;;;;;;6117426;29;20305;-68
2022/10/24 10:41:01;;;;;;;1.30;1.10;;;10.60;99.90;;;;;;6118183;29;20272;-68
2022/10/24 10:44:33;;;;;;;1.08;0.93;;;10.60;99.90;;;;;;6100575;29;20307;-68
2022/10/24 10:47:50;;;;;;;1.02;0.90;;;10.70;99.90;;;;;;6117315;29;20300;-68
2022/10/24 10:50:59;;;;;;;3.17;1.42;;;10.60;99.90;;;;;;6118190;29;20272;-68
2022/10/24 10:54:37;;;;;;;1.35;1.00;;;10.70;99.90;;;;;;6117203;29;20300;-68
2022/10/24 10:57:49;;;;;;;0.70;0.70;;;10.70;99.90;;;;;;6116946;29;20304;-68
2022/10/24 11:01:01;;;;;;;3.75;0.90;;;10.70;99.90;;;;;;6117846;29;20441;-67
2022/10/24 11:04:13;;;;;;;1.85;0.80;;;10.70;99.90;;;;;;6116989;29;20287;-67
2022/10/24 11:07:23;;;;;;;0.88;0.88;;;10.70;99.90;;;;;;6116964;29;20303;-67
2022/10/24 11:10:35;;;;;;;1.00;1.00;;;10.70;99.90;;;;;;6124979;29;20270;-67
2022/10/24 11:13:46;;;;;;;1.38;1.05;;;10.70;99.90;;;;;;6140735;29;20607;-68
2022/10/24 11:16:51;;;;;;;2.53;1.13;;;10.70;99.90;;;;;;6141310;29;20295;-68
2022/10/24 11:20:05;;;;;;;1.15;1.00;;;10.70;99.90;;;;;;6140346;29;20291;-67
2022/10/24 11:23:16;;;;;;;1.48;1.02;;;10.70;99.90;;;;;;6140155;29;20299;-69
2022/10/24 11:26:29;;;;;;;3.28;0.93;;;10.70;99.90;;;;;;6140603;29;20463;-69
2022/10/24 11:29:38;;;;;;;0.90;0.90;;;10.70;99.90;;;;;;6140334;29;20299;-67
2022/10/24 11:32:48;;;;;;;1.20;0.90;;;10.70;99.90;;;;;;6139989;29;20311;-67
2022/10/24 11:36:11;;;;;;;1.25;0.93;;;10.70;99.90;;;;;;6140723;29;20275;-67
2022/10/24 11:39:20;;;;;;;2.45;1.05;;;10.80;99.90;;;;;;6140289;29;20510;-68
2022/10/24 11:42:32;;;;;;;0.88;0.88;;;10.80;99.90;;;;;;6139933;29;20295;-67
2022/10/24 11:45:44;;;;;;;1.70;0.70;;;10.80;99.90;;;;;;6140207;29;20271;-67
2022/10/24 11:48:53;;;;;;;0.88;0.88;;;10.80;99.90;;;;;;6140102;29;20310;-68
2022/10/24 11:52:01;;;;;;;2.20;1.10;;;10.80;99.90;;;;;;6140352;29;20268;-68
2022/10/24 11:55:11;;;;;;;0.90;0.90;;;10.70;99.90;;;;;;6139589;29;20274;-68
2022/10/24 11:58:21;;;;;;;2.70;0.90;;;10.80;99.90;;;;;;6139712;29;20308;-68
2022/10/24 12:01:58;;;;;;;1.45;0.90;;;10.80;99.90;;;;;;6140337;29;20271;-68
2022/10/24 12:05:28;;;;;;;1.00;1.00;;;10.80;99.90;;;;;;6139485;29;20271;-68
2022/10/24 12:08:53;;;;;;;0.80;0.80;;;10.80;99.90;;;;;;6139625;29;20304;-68
2022/10/24 12:12:11;;;;;;;1.90;0.98;;;10.70;99.90;;;;;;6120144;29;20268;-68
2022/10/24 12:15:39;;;;;;;1.20;1.17;;;10.80;99.90;;;;;;6116173;29;20280;-67
2022/10/24 12:18:47;;;;;;;1.08;1.08;;;10.80;99.90;;;;;;6099197;29;20304;-68
2022/10/24 12:21:53;;;;;;;2.60;1.30;;;10.80;99.90;;;;;;6116549;29;20276;-68
2022/10/24 12:25:07;;;;;;;1.10;1.10;;;10.70;99.90;;;;;;6116491;29;20311;-68
2022/10/24 12:28:22;;;;;;;1.48;1.15;;;10.70;99.90;;;;;;6115926;29;20303;-68
2022/10/24 12:31:31;;;;;;;1.15;1.15;;;10.80;99.90;;;;;;6116504;29;20272;-68
2022/10/24 12:34:44;;;;;;;5.32;1.60;;;10.80;99.90;;;;;;6119789;29;20467;-68
2022/10/24 12:37:53;;;;;;;2.35;1.30;;;10.80;99.90;;;;;;6120089;29;20296;-68
2022/10/24 12:41:04;;;;;;;1.10;1.10;;;10.90;99.90;;;;;;6120761;29;20276;-68
2022/10/24 12:44:40;;;;;;;3.78;1.08;;;10.90;99.90;;;;;;6120344;29;20308;-68
2022/10/24 12:48:31;;;;;;;1.55;1.27;;;10.90;99.90;;;;;;6120127;29;20595;-68
2022/10/24 12:51:37;;;;;;;1.50;1.10;;;10.80;99.90;;;;;;6120425;29;20272;-68
2022/10/24 12:54:44;;;;;;;1.00;1.00;;;10.80;99.90;;;;;;6120024;29;20307;-68
2022/10/24 12:57:49;;;;;;;1.55;1.00;;;10.90;99.90;;;;;;6119947;29;20307;-67
2022/10/24 13:00:54;;;;;;;0.90;0.90;;;10.90;99.90;;;;;;6120062;29;20272;-67
2022/10/24 13:04:34;;;;;;;1.00;0.93;;;10.80;99.90;;;;;;6119597;29;20295;-67
2022/10/24 13:08:08;;;;;;;1.10;1.10;;;10.70;99.90;;;;;;6111292;29;20580;-68
2022/10/24 13:11:35;;;;;;;0.82;0.82;;;10.80;99.90;;;;;;6117519;29;20263;-68
2022/10/24 13:15:10;;;;;;;1.10;1.10;;;10.70;99.90;;;;;;6126482;29;20307;-67
2022/10/24 13:18:31;;;;;;;2.17;1.20;;;10.70;99.90;;;;;;6133148;29;20624;-68
2022/10/24 13:21:47;;;;;;;2.00;1.90;;;10.70;99.90;;;;;;6143432;29;20567;-67
2022/10/24 13:24:52;;;;;;;1.48;1.17;;;10.70;99.90;;;;;;6143164;29;20296;-67
2022/10/24 13:28:42;;;;;;;1.02;1.02;;;10.70;99.90;;;;;;6143199;29;20610;-67
2022/10/24 13:31:51;;;;;;;1.35;1.30;;;10.70;99.90;;;;;;6143645;29;20276;-67
2022/10/24 13:34:58;;;;;;;1.10;1.10;;;10.60;99.90;;;;;;6142865;29;20299;-67
2022/10/24 13:38:04;;;;;;;1.20;1.20;;;10.60;99.90;;;;;;6142301;29;20314;-68
2022/10/24 13:41:21;;;;;;;1.55;1.30;;;10.50;99.90;;;;;;6142832;29;20272;-68
2022/10/24 13:44:32;;;;;;;1.30;1.20;;;10.60;99.90;;;;;;6142081;29;20295;-67
2022/10/24 13:47:45;;;;;;;1.20;1.10;;;10.60;99.90;;;;;;6142375;29;20290;-67
2022/10/24 13:51:02;;;;;;;1.70;1.30;;;10.60;99.90;;;;;;6143142;29;20271;-67
2022/10/24 13:54:15;;;;;;;2.20;1.17;;;10.60;99.90;;;;;;6142171;29;20566;-67
2022/10/24 13:57:32;;;;;;;1.58;1.35;;;10.60;99.90;;;;;;6142303;29;20291;-67
2022/10/24 14:00:39;;;;;;;2.10;1.20;;;10.60;99.90;;;;;;6142526;29;20556;-66
2022/10/24 14:03:45;;;;;;;1.48;1.38;;;10.60;99.90;;;;;;6141724;29;20595;-67
2022/10/24 14:06:50;;;;;;;1.95;1.58;;;10.60;99.90;;;;;;6142631;29;20275;-67
2022/10/24 14:10:00;;;;;;;2.72;1.30;;;10.60;99.90;;;;;;6138507;29;20295;-67
2022/10/24 14:13:05;;;;;;;1.92;1.48;;;10.70;99.90;;;;;;6118570;29;20313;-68
2022/10/24 14:16:11;;;;;;;1.40;1.40;;;10.60;99.90;;;;;;6118577;29;20272;-67
2022/10/24 14:19:25;;;;;;;2.20;1.60;;;10.60;99.90;;;;;;6118217;29;20299;-67
2022/10/24 14:22:39;;;;;;;3.03;1.35;;;10.60;99.90;;;;;;6118128;29;20295;-68
2022/10/24 14:25:45;;;;;;;1.30;1.30;;;10.60;99.90;;;;;;6118697;29;20276;-68
2022/10/24 14:28:53;;;;;;;2.00;1.50;;;10.60;99.90;;;;;;6118008;29;20319;-68
2022/10/24 14:32:07;;;;;;;2.05;1.95;;;10.50;99.90;;;;;;6118123;29;20283;-68
2022/10/24 14:35:14;;;;;;;1.60;1.50;;;10.60;99.90;;;;;;6118370;29;20273;-69
2022/10/24 14:38:20;;;;;;;2.53;1.45;;;10.60;99.90;;;;;;6117527;29;20327;-68
2022/10/24 14:41:28;;;;;;;3.08;1.40;;;10.60;99.90;;;;;;6117645;29;20276;-68
2022/10/24 14:44:33;;;;;;;1.20;1.20;;;10.50;99.90;;;;;;6117809;29;20592;-68
2022/10/24 14:47:51;;;;;;;5.20;1.67;;;10.60;99.90;;;;;;6117894;29;20315;-68
2022/10/24 14:51:02;;;;;;;1.67;1.33;;;10.50;99.90;;;;;;6117615;29;20276;-68
2022/10/24 14:54:17;;;;;;;1.45;1.35;;;10.60;99.90;;;;;;6117439;29;20299;-68
2022/10/24 14:57:23;;;;;;;2.65;1.60;;;10.50;99.90;;;;;;6116544;29;20304;-68
2022/10/24 15:00:38;;;;;;;1.80;1.50;;;10.40;99.90;;;;;;6117516;29;20292;-68
2022/10/24 15:03:52;;;;;;;1.60;1.50;;;10.50;99.90;;;;;;6117326;29;20379;-69
2022/10/24 15:06:57;;;;;;;1.50;1.50;;;10.40;99.90;;;;;;6117269;29;20271;-68
2022/10/24 15:10:24;;;;;;;2.78;1.80;;;10.40;99.90;;;;;;6118208;29;20275;-68
2022/10/24 15:13:33;;;;;;;1.65;1.60;;;10.40;99.90;;;;;;6140316;29;20295;-68
2022/10/24 15:16:40;;;;;;;1.95;1.85;;;10.50;99.90;;;;;;6140920;29;20271;-68
2022/10/24 15:19:47;;;;;;;2.50;2.10;;;10.50;99.90;;;;;;6140076;29;20311;-68
2022/10/24 15:22:56;;;;;;;2.85;2.00;;;10.40;99.90;;;;;;6140542;29;20476;-67
2022/10/24 15:26:09;;;;;;;2.13;1.83;;;10.40;99.90;;;;;;6141008;29;20266;-68
2022/10/24 15:29:20;;;;;;;2.17;1.80;;;10.40;99.90;;;;;;6140132;29;20314;-68
2022/10/24 15:32:25;;;;;;;2.00;1.90;;;10.40;99.90;;;;;;6140272;29;20295;-68
2022/10/24 15:35:34;;;;;;;2.05;1.95;;;10.40;99.90;;;;;;6140754;29;20275;-67
2022/10/24 15:38:39;;;;;;;1.77;1.77;;;10.40;99.90;;;;;;6139884;29;20302;-68
2022/10/24 15:41:44;;;;;;;1.90;1.80;;;10.40;99.90;;;;;;6140664;29;20452;-67
2022/10/24 15:44:51;;;;;;;2.50;2.40;;;10.40;99.90;;;;;;6140130;29;20494;-68
2022/10/24 15:47:55;;;;;;;2.22;2.05;;;10.40;99.90;;;;;;6140222;29;20294;-68
2022/10/24 15:51:00;;;;;;;2.00;1.95;;;10.40;99.90;;;;;;6140532;29;20271;-67
2022/10/24 15:54:05;;;;;;;1.92;1.83;;;10.40;99.90;;;;;;6140142;29;20318;-68
2022/10/24 15:57:11;;;;;;;2.92;2.00;;;10.40;99.90;;;;;;6139853;29;20267;-68
2022/10/24 16:00:20;;;;;;;2.50;2.35;;;10.40;99.90;;;;;;6140265;29;20482;-68
2022/10/24 16:03:25;;;;;;;2.30;2.20;;;10.40;99.90;;;;;;6139691;29;20482;-68
2022/10/24 16:06:30;;;;;;;2.00;1.88;;;10.40;99.90;;;;;;6140802;29;20295;-68
2022/10/24 16:09:35;;;;;;;2.50;2.13;;;10.40;99.90;;;;;;6146260;29;20302;-68
2022/10/24 16:12:39;;;;;;;2.03;1.98;;;10.30;99.90;;;;;;6123636;29;20616;-68
2022/10/24 16:15:46;;;;;;;2.83;1.98;;;10.30;99.90;;;;;;6124970;29;20567;-68
2022/10/24 16:18:51;;;;;;;2.30;2.20;;;10.40;99.90;;;;;;6124047;29;20316;-68
2022/10/24 16:21:57;;;;;;;3.50;1.90;;;10.40;99.90;;;;;;6124039;29;20477;-67
2022/10/24 16:25:02;;;;;;;3.42;2.22;;;10.40;99.90;;;;;;6123591;29;20276;-68
2022/10/24 16:28:08;;;;;;;2.00;1.73;;;10.30;99.90;;;;;;6123893;29;20312;-68
2022/10/24 16:31:17;;;;;;;1.98;1.88;;;10.40;99.90;;;;;;6124061;29;20279;-67
2022/10/24 16:34:23;;;;;;;2.58;2.38;;;10.40;99.90;;;;;;6123385;29;20304;-67